Time;durP1;ratioP1;P1;durP2;ratioP2;P2;SDS_P1;SDS_P2;PMS_P1;PMS_P2;Temp;Humidity;BMP_temperature;BMP_pressure;BME280_temperature;BME280_humidity;BME280_pressure;Samples;Min_cycle;Max_cycle;Signal;HPM_P1;HPM_P2
2022/03/26 00:01:11;;;;;;;11.73;5.13;;;;;;;;;;6217645;28;20060;-85
2022/03/26 00:04:15;;;;;;;11.93;5.40;;;;;;;;;;6215832;28;20393;-87
2022/03/26 00:07:18;;;;;;;11.40;4.78;;;;;;;;;;6197826;28;20128;-84
2022/03/26 00:10:23;;;;;;;14.90;6.00;;;;;;;;;;6218326;28;20046;-83
2022/03/26 00:13:27;;;;;;;11.45;5.50;;;;;;;;;;6218089;28;20049;-83
2022/03/26 00:16:30;;;;;;;10.13;5.53;;;;;;;;;;6215886;28;20046;-82
2022/03/26 00:19:33;;;;;;;14.32;5.60;;;;;;;;;;6215599;28;20123;-82
2022/03/26 00:22:36;;;;;;;20.80;6.60;;;;;;;;;;6197958;28;20049;-84
2022/03/26 00:25:39;;;;;;;13.20;5.60;;;;;;;;;;6215611;28;20042;-81
2022/03/26 00:28:44;;;;;;;11.82;6.00;;;;;;;;;;6215051;28;20053;-81
2022/03/26 00:31:47;;;;;;;17.52;5.68;;;;;;;;;;6216760;28;20046;-83
2022/03/26 00:34:50;;;;;;;15.45;6.22;;;;;;;;;;6218132;28;20045;-83
2022/03/26 00:37:53;;;;;;;13.75;5.90;;;;;;;;;;6199843;28;20622;-80
2022/03/26 00:40:56;;;;;;;17.42;6.47;;;;;;;;;;6217301;28;20054;-85
2022/03/26 00:44:01;;;;;;;13.27;6.25;;;;;;;;;;6215039;28;20261;-85
2022/03/26 00:47:04;;;;;;;13.63;6.47;;;;;;;;;;6217114;28;20041;-78
2022/03/26 00:50:07;;;;;;;17.17;5.78;;;;;;;;;;6216977;28;20586;-78
2022/03/26 00:53:11;;;;;;;13.90;6.68;;;;;;;;;;6217119;28;20049;-78
2022/03/26 00:56:14;;;;;;;19.02;6.75;;;;;;;;;;6199994;28;20403;-78
2022/03/26 00:59:20;;;;;;;13.75;5.60;;;;;;;;;;6216337;28;20481;-79
2022/03/26 01:02:24;;;;;;;18.20;5.80;;;;;;;;;;6217232;28;20046;-78
2022/03/26 01:05:27;;;;;;;15.45;6.45;;;;;;;;;;6199720;28;20104;-78
2022/03/26 01:08:32;;;;;;;20.02;7.05;;;;;;;;;;6217849;28;20054;-81
2022/03/26 01:11:35;;;;;;;16.92;6.75;;;;;;;;;;6199449;28;20052;-83
2022/03/26 01:14:40;;;;;;;15.38;6.18;;;;;;;;;;6216914;28;20056;-82
2022/03/26 01:17:43;;;;;;;19.70;6.43;;;;;;;;;;6218024;28;20057;-81
2022/03/26 01:20:46;;;;;;;17.20;7.18;;;;;;;;;;6216828;28;20180;-83
2022/03/26 01:23:49;;;;;;;15.13;7.60;;;;;;;;;;6217022;28;20077;-82
2022/03/26 01:26:52;;;;;;;14.35;6.75;;;;;;;;;;6217233;28;20060;-82
2022/03/26 01:29:57;;;;;;;16.83;6.50;;;;;;;;;;6217209;28;20057;-83
2022/03/26 01:33:00;;;;;;;16.08;6.35;;;;;;;;;;6215605;28;20511;-79
2022/03/26 01:36:03;;;;;;;15.32;6.30;;;;;;;;;;6216177;28;20410;-79
2022/03/26 01:39:06;;;;;;;15.98;6.55;;;;;;;;;;6217305;28;20480;-80
2022/03/26 01:42:09;;;;;;;14.80;5.88;;;;;;;;;;6216367;28;20444;-78
2022/03/26 01:45:14;;;;;;;13.23;6.53;;;;;;;;;;6216094;28;20045;-79
2022/03/26 01:48:17;;;;;;;12.47;6.20;;;;;;;;;;6217122;28;20050;-80
2022/03/26 01:51:20;;;;;;;13.52;6.32;;;;;;;;;;6216666;28;20052;-79
2022/03/26 01:54:27;;;;;;;16.95;6.53;;;;;;;;;;6216483;28;20057;-81
2022/03/26 01:57:30;;;;;;;16.10;6.63;;;;;;;;;;6220689;28;20589;-80
2022/03/26 02:00:35;;;;;;;14.20;5.93;;;;;;;;;;6221187;28;20049;-80
2022/03/26 02:03:38;;;;;;;13.77;6.60;;;;;;;;;;6221773;28;20057;-79
2022/03/26 02:06:41;;;;;;;17.30;7.25;;;;;;;;;;6220385;28;20477;-80
2022/03/26 02:09:44;;;;;;;15.10;6.78;;;;;;;;;;6221431;28;20054;-80
2022/03/26 02:12:47;;;;;;;12.80;5.68;;;;;;;;;;6221127;28;20236;-81
2022/03/26 02:15:52;;;;;;;15.55;6.68;;;;;;;;;;6219254;28;20128;-79
2022/03/26 02:18:55;;;;;;;17.33;6.53;;;;;;;;;;6221102;28;20096;-81
2022/03/26 02:21:59;;;;;;;14.32;6.00;;;;;;;;;;6203767;28;20050;-82
2022/03/26 02:25:02;;;;;;;17.33;6.13;;;;;;;;;;6218885;28;20054;-80
2022/03/26 02:28:05;;;;;;;11.90;6.15;;;;;;;;;;6218165;28;20411;-81
2022/03/26 02:31:08;;;;;;;16.13;7.00;;;;;;;;;;6218830;28;20412;-78
2022/03/26 02:34:11;;;;;;;16.52;6.93;;;;;;;;;;6219795;28;20073;-79
2022/03/26 02:37:16;;;;;;;9.80;5.47;;;;;;;;;;6219468;28;20734;-80
2022/03/26 02:40:20;;;;;;;13.15;5.80;;;;;;;;;;6220551;28;20072;-81
2022/03/26 02:43:23;;;;;;;12.45;5.38;;;;;;;;;;6220273;28;20057;-81
2022/03/26 02:46:26;;;;;;;13.23;5.75;;;;;;;;;;6220004;28;20050;-80
2022/03/26 02:49:29;;;;;;;11.68;5.35;;;;;;;;;;6219560;28;20457;-80
2022/03/26 02:52:35;;;;;;;14.75;6.47;;;;;;;;;;6201749;28;20042;-80
2022/03/26 02:55:41;;;;;;;16.80;6.07;;;;;;;;;;6220194;28;20049;-81
2022/03/26 02:58:44;;;;;;;12.18;5.28;;;;;;;;;;6218113;28;20045;-80
2022/03/26 03:01:48;;;;;;;13.88;5.22;;;;;;;;;;6220043;28;20041;-80
2022/03/26 03:04:53;;;;;;;15.35;5.45;;;;;;;;;;6219710;28;20061;-79
2022/03/26 03:07:58;;;;;;;12.00;5.05;;;;;;;;;;6217327;28;20398;-86
2022/03/26 03:11:01;;;;;;;12.40;4.90;;;;;;;;;;6219798;28;20053;-85
2022/03/26 03:14:04;;;;;;;11.02;4.97;;;;;;;;;;6219852;28;20050;-85
2022/03/26 03:17:07;;;;;;;11.90;4.97;;;;;;;;;;6219789;28;20089;-81
2022/03/26 03:20:11;;;;;;;13.88;5.05;;;;;;;;;;6219459;28;20037;-86
2022/03/26 03:23:15;;;;;;;13.82;4.97;;;;;;;;;;6219948;28;20050;-82
2022/03/26 03:26:18;;;;;;;12.23;4.70;;;;;;;;;;6219921;28;20038;-82
2022/03/26 03:29:22;;;;;;;16.08;5.32;;;;;;;;;;6219039;28;20053;-83
2022/03/26 03:32:26;;;;;;;13.30;4.65;;;;;;;;;;6219519;28;20042;-83
2022/03/26 03:35:28;;;;;;;9.90;5.00;;;;;;;;;;6219381;28;20067;-84
2022/03/26 03:38:33;;;;;;;12.68;5.25;;;;;;;;;;6219144;28;20080;-82
2022/03/26 03:41:36;;;;;;;11.82;4.82;;;;;;;;;;6200590;28;20103;-81
2022/03/26 03:44:39;;;;;;;17.23;5.38;;;;;;;;;;6201941;28;20041;-84
2022/03/26 03:47:42;;;;;;;14.40;5.07;;;;;;;;;;6217831;28;20038;-85
2022/03/26 03:50:47;;;;;;;11.85;4.80;;;;;;;;;;6218870;28;20080;-83
2022/03/26 03:53:51;;;;;;;11.70;5.00;;;;;;;;;;6219205;28;20046;-85
2022/03/26 03:56:55;;;;;;;12.32;5.15;;;;;;;;;;6218828;28;20401;-81
2022/03/26 03:59:58;;;;;;;13.13;4.95;;;;;;;;;;6218163;28;20437;-80
2022/03/26 04:03:01;;;;;;;10.68;4.80;;;;;;;;;;6200553;28;20046;-83
2022/03/26 04:06:06;;;;;;;13.40;5.17;;;;;;;;;;6200962;28;20527;-77
2022/03/26 04:09:10;;;;;;;14.63;5.20;;;;;;;;;;6200534;28;20042;-76
2022/03/26 04:12:13;;;;;;;12.98;5.30;;;;;;;;;;6217587;28;20046;-78
2022/03/26 04:15:16;;;;;;;10.95;4.97;;;;;;;;;;6218612;28;20481;-80
2022/03/26 04:18:19;;;;;;;11.68;4.82;;;;;;;;;;6217786;28;20506;-80
2022/03/26 04:21:22;;;;;;;12.60;5.38;;;;;;;;;;6218190;28;20049;-85
2022/03/26 04:24:26;;;;;;;13.20;5.28;;;;;;;;;;6217350;28;20068;-85
2022/03/26 04:27:29;;;;;;;10.23;5.10;;;;;;;;;;6216654;28;20046;-79
2022/03/26 04:30:32;;;;;;;12.65;5.47;;;;;;;;;;6216398;28;20364;-81
2022/03/26 04:33:35;;;;;;;15.85;4.97;;;;;;;;;;6218046;28;20452;-87
2022/03/26 04:36:38;;;;;;;12.43;5.20;;;;;;;;;;6219360;28;20048;-86
2022/03/26 04:39:43;;;;;;;12.52;5.55;;;;;;;;;;6218054;28;20045;-84
2022/03/26 04:42:45;;;;;;;15.85;5.43;;;;;;;;;;6216761;28;20540;-85
2022/03/26 04:45:51;;;;;;;13.35;5.63;;;;;;;;;;6217250;28;20045;-82
2022/03/26 04:48:54;;;;;;;11.63;5.35;;;;;;;;;;6218112;28;20042;-82
2022/03/26 04:51:58;;;;;;;13.07;5.43;;;;;;;;;;6215725;28;20054;-83
2022/03/26 04:55:04;;;;;;;14.52;6.60;;;;;;;;;;6216954;28;20054;-83
2022/03/26 04:58:08;;;;;;;9.40;5.68;;;;;;;;;;6200605;28;20095;-82
2022/03/26 05:01:11;;;;;;;15.00;5.47;;;;;;;;;;6216574;28;20076;-82
2022/03/26 05:04:14;;;;;;;11.93;5.63;;;;;;;;;;6217194;28;20120;-80
2022/03/26 05:10:54;;;;;;;14.30;5.78;;;;;;;;;;6166228;28;20046;-82
2022/03/26 05:13:59;;;;;;;16.23;5.63;;;;;;;;;;6166249;28;20445;-81
2022/03/26 05:17:02;;;;;;;14.57;6.28;;;;;;;;;;6198637;28;20420;-82
2022/03/26 05:20:05;;;;;;;17.38;6.43;;;;;;;;;;6217171;28;20048;-82
2022/03/26 05:23:08;;;;;;;13.95;6.03;;;;;;;;;;6214871;28;20053;-83
2022/03/26 05:26:15;;;;;;;15.40;5.78;;;;;;;;;;6214638;28;20117;-79
2022/03/26 05:29:21;;;;;;;18.00;7.10;;;;;;;;;;6214445;28;20407;-82
2022/03/26 05:32:24;;;;;;;21.85;6.45;;;;;;;;;;6218890;28;20057;-81
2022/03/26 05:35:27;;;;;;;15.18;6.70;;;;;;;;;;6202151;28;20052;-80
2022/03/26 05:38:31;;;;;;;19.33;6.68;;;;;;;;;;6203567;28;20169;-81
2022/03/26 05:41:35;;;;;;;16.08;7.07;;;;;;;;;;6222230;28;20057;-79
2022/03/26 05:44:38;;;;;;;15.32;6.18;;;;;;;;;;6221498;28;20188;-83
2022/03/26 05:47:43;;;;;;;15.30;7.43;;;;;;;;;;6221127;28;20049;-86
2022/03/26 05:50:47;;;;;;;16.45;6.47;;;;;;;;;;6222210;28;20053;-76
2022/03/26 05:53:50;;;;;;;15.93;7.47;;;;;;;;;;6221420;28;20049;-77
2022/03/26 05:56:54;;;;;;;11.93;6.00;;;;;;;;;;6203807;28;20042;-81
2022/03/26 05:59:57;;;;;;;15.98;6.95;;;;;;;;;;6221169;28;20149;-82
2022/03/26 06:03:00;;;;;;;14.80;6.57;;;;;;;;;;6221635;28;20042;-85
2022/03/26 06:06:03;;;;;;;19.23;7.93;;;;;;;;;;6218930;28;20632;-85
2022/03/26 06:09:06;;;;;;;16.92;6.88;;;;;;;;;;6220640;28;20500;-83
2022/03/26 06:12:11;;;;;;;17.75;7.65;;;;;;;;;;6221371;28;20484;-83
2022/03/26 06:15:14;;;;;;;17.35;7.18;;;;;;;;;;6220842;28;20411;-82
2022/03/26 06:18:38;;;;;;;20.52;7.70;;;;;;;;;;6221071;28;20057;-83
2022/03/26 06:21:41;;;;;;;15.30;7.65;;;;;;;;;;6220513;28;20050;-83
2022/03/26 06:24:44;;;;;;;17.83;9.07;;;;;;;;;;6221205;28;20409;-83
2022/03/26 06:27:48;;;;;;;17.38;9.05;;;;;;;;;;6219267;28;20468;-82
2022/03/26 06:30:51;;;;;;;20.55;7.80;;;;;;;;;;6219240;28;20096;-82
2022/03/26 06:33:54;;;;;;;18.13;8.23;;;;;;;;;;6221631;28;20161;-81
2022/03/26 06:36:57;;;;;;;14.45;7.78;;;;;;;;;;6218268;28;20046;-82
2022/03/26 06:40:01;;;;;;;18.70;8.80;;;;;;;;;;6220455;28;20042;-82
2022/03/26 06:43:06;;;;;;;22.27;8.77;;;;;;;;;;6218820;28;20065;-82
2022/03/26 06:46:09;;;;;;;16.37;8.20;;;;;;;;;;6219403;28;20046;-82
2022/03/26 06:49:12;;;;;;;20.27;9.85;;;;;;;;;;6220296;28;20493;-81
2022/03/26 06:52:15;;;;;;;20.35;8.73;;;;;;;;;;6219028;28;20492;-84
2022/03/26 06:55:19;;;;;;;21.05;10.40;;;;;;;;;;6220413;28;20108;-83
2022/03/26 06:58:23;;;;;;;18.25;9.30;;;;;;;;;;6220294;28;20046;-84
2022/03/26 07:01:27;;;;;;;19.38;8.43;;;;;;;;;;6220321;28;20056;-84
2022/03/26 07:04:32;;;;;;;23.17;8.60;;;;;;;;;;6218677;28;20129;-83
2022/03/26 07:07:35;;;;;;;21.40;11.13;;;;;;;;;;6216888;28;20041;-84
2022/03/26 07:10:41;;;;;;;22.10;9.45;;;;;;;;;;6219903;28;20053;-83
2022/03/26 07:13:45;;;;;;;21.77;10.82;;;;;;;;;;6219465;28;20452;-83
2022/03/26 07:16:48;;;;;;;23.52;11.15;;;;;;;;;;6218900;28;20050;-83
2022/03/26 07:19:51;;;;;;;23.25;11.13;;;;;;;;;;6219866;28;20046;-83
2022/03/26 07:22:54;;;;;;;22.38;11.23;;;;;;;;;;6217886;28;20050;-84
2022/03/26 07:25:57;;;;;;;25.80;12.27;;;;;;;;;;6220330;28;20042;-83
2022/03/26 07:29:02;;;;;;;22.92;11.35;;;;;;;;;;6219981;28;20489;-84
2022/03/26 07:32:06;;;;;;;25.80;11.48;;;;;;;;;;6247460;28;20045;-83
2022/03/26 07:35:09;;;;;;;24.40;12.18;;;;;;;;;;6242224;28;20052;-83
2022/03/26 07:38:12;;;;;;;22.35;11.85;;;;;;;;;;6220109;28;20088;-83
2022/03/26 07:41:16;;;;;;;20.60;10.43;;;;;;;;;;6219531;28;20057;-83
2022/03/26 07:44:20;;;;;;;24.38;12.00;;;;;;;;;;6218501;28;20050;-83
2022/03/26 07:47:23;;;;;;;19.73;10.68;;;;;;;;;;6218510;28;20401;-84
2022/03/26 07:50:29;;;;;;;26.33;11.43;;;;;;;;;;6218607;28;20046;-84
2022/03/26 07:53:32;;;;;;;21.75;11.00;;;;;;;;;;6218032;28;20494;-85
2022/03/26 07:56:35;;;;;;;23.98;11.98;;;;;;;;;;6218480;28;20420;-84
2022/03/26 07:59:39;;;;;;;33.65;16.75;;;;;;;;;;6218756;28;20417;-82
2022/03/26 08:02:42;;;;;;;20.33;10.00;;;;;;;;;;6219217;28;20096;-85
2022/03/26 08:05:45;;;;;;;32.88;10.73;;;;;;;;;;6218021;28;20041;-82
2022/03/26 08:08:51;;;;;;;23.15;11.13;;;;;;;;;;6218829;28;20038;-84
2022/03/26 08:11:57;;;;;;;20.80;10.90;;;;;;;;;;6217275;28;20100;-84
2022/03/26 08:15:01;;;;;;;20.55;10.45;;;;;;;;;;6217926;28;20408;-83
2022/03/26 08:18:04;;;;;;;26.80;10.95;;;;;;;;;;6217067;28;20045;-84
2022/03/26 08:21:10;;;;;;;28.23;11.48;;;;;;;;;;6216844;28;20566;-84
2022/03/26 08:24:13;;;;;;;23.60;11.00;;;;;;;;;;6216661;28;20126;-84
2022/03/26 08:27:16;;;;;;;21.15;11.02;;;;;;;;;;6217768;28;20042;-85
2022/03/26 08:30:20;;;;;;;22.85;10.95;;;;;;;;;;6216721;28;20391;-87
2022/03/26 08:33:23;;;;;;;24.27;11.93;;;;;;;;;;6217290;28;20053;-86
2022/03/26 08:36:26;;;;;;;22.73;11.38;;;;;;;;;;6217101;28;20048;-87
2022/03/26 08:39:32;;;;;;;18.77;10.23;;;;;;;;;;6216405;28;20509;-85
2022/03/26 08:42:35;;;;;;;20.80;10.88;;;;;;;;;;6216433;28;20053;-84
2022/03/26 08:45:40;;;;;;;20.33;11.02;;;;;;;;;;6215763;28;20081;-84
2022/03/26 08:48:43;;;;;;;24.35;10.88;;;;;;;;;;6217483;28;20477;-87
2022/03/26 08:51:46;;;;;;;23.90;11.55;;;;;;;;;;6215596;28;20480;-83
2022/03/26 08:54:49;;;;;;;24.65;11.43;;;;;;;;;;6215916;28;20415;-85
2022/03/26 08:57:53;;;;;;;21.67;11.68;;;;;;;;;;6214029;28;20058;-84
2022/03/26 09:00:57;;;;;;;30.92;13.27;;;;;;;;;;6217470;28;20466;-84
2022/03/26 09:04:00;;;;;;;20.63;11.45;;;;;;;;;;6217893;28;20046;-85
2022/03/26 09:07:04;;;;;;;25.23;11.80;;;;;;;;;;6221212;28;20046;-85
2022/03/26 09:10:07;;;;;;;27.17;12.82;;;;;;;;;;6222841;28;20049;-86
2022/03/26 09:13:10;;;;;;;27.27;13.07;;;;;;;;;;6222541;28;20052;-83
2022/03/26 09:16:14;;;;;;;19.70;12.30;;;;;;;;;;6222541;28;20064;-86
2022/03/26 09:19:17;;;;;;;30.95;14.32;;;;;;;;;;6222506;28;20046;-84
2022/03/26 09:22:21;;;;;;;23.20;12.95;;;;;;;;;;6221438;28;20435;-86
2022/03/26 09:25:25;;;;;;;23.13;12.50;;;;;;;;;;6222060;28;20053;-85
2022/03/26 09:28:28;;;;;;;24.95;12.65;;;;;;;;;;6221757;28;20189;-87
2022/03/26 09:31:32;;;;;;;21.77;11.15;;;;;;;;;;6222753;28;20081;-84
2022/03/26 09:34:35;;;;;;;23.77;12.03;;;;;;;;;;6228497;28;20103;-84
2022/03/26 09:37:38;;;;;;;16.02;7.00;;;;;;;;;;6223889;28;20501;-85
2022/03/26 09:40:43;;;;;;;16.73;9.75;;;;;;;;;;6221711;28;20049;-83
2022/03/26 09:43:46;;;;;;;19.90;7.60;;;;;;;;;;6221437;28;20133;-84
2022/03/26 09:46:50;;;;;;;12.30;6.25;;;;;;;;;;6221825;28;20057;-88
2022/03/26 09:49:53;;;;;;;12.70;6.82;;;;;;;;;;6203913;28;20037;-89
2022/03/26 09:52:57;;;;;;;15.45;6.88;;;;;;;;;;6221822;28;20054;-86
2022/03/26 09:56:00;;;;;;;13.98;6.75;;;;;;;;;;6223041;28;20052;-85
2022/03/26 09:59:03;;;;;;;14.10;6.70;;;;;;;;;;6221080;28;20061;-87
2022/03/26 10:02:08;;;;;;;15.30;7.05;;;;;;;;;;6221768;28;20513;-88
2022/03/26 10:05:18;;;;;;;15.38;6.88;;;;;;;;;;6222030;28;20132;-84
2022/03/26 10:08:21;;;;;;;11.25;5.88;;;;;;;;;;6222699;28;20417;-84
2022/03/26 10:11:24;;;;;;;12.60;5.70;;;;;;;;;;6220659;28;20447;-85
2022/03/26 10:14:43;;;;;;;15.13;5.65;;;;;;;;;;6221643;28;20054;-84
2022/03/26 10:17:49;;;;;;;14.15;5.78;;;;;;;;;;6220728;28;20045;-84
2022/03/26 10:20:57;;;;;;;20.20;5.93;;;;;;;;;;6220823;28;20049;-84
2022/03/26 10:24:00;;;;;;;12.48;5.70;;;;;;;;;;6220278;28;20050;-85
2022/03/26 10:27:10;;;;;;;13.13;6.45;;;;;;;;;;6235618;28;20056;-85
2022/03/26 10:30:17;;;;;;;12.50;6.07;;;;;;;;;;6219132;28;20093;-84
2022/03/26 10:33:21;;;;;;;12.70;6.40;;;;;;;;;;6219374;28;20061;-85
2022/03/26 10:36:26;;;;;;;11.45;6.00;;;;;;;;;;6219395;28;20042;-84
2022/03/26 10:39:29;;;;;;;13.93;6.53;;;;;;;;;;6219097;28;20571;-84
2022/03/26 10:42:32;;;;;;;12.50;6.35;;;;;;;;;;6218553;28;20105;-85
2022/03/26 10:45:37;;;;;;;13.20;6.57;;;;;;;;;;6235394;28;20617;-84
2022/03/26 10:48:43;;;;;;;15.45;6.57;;;;;;;;;;6218874;28;20050;-85
2022/03/26 10:51:47;;;;;;;13.55;6.18;;;;;;;;;;6234830;28;20181;-85
2022/03/26 10:54:50;;;;;;;14.63;6.22;;;;;;;;;;6218868;28;20050;-87
2022/03/26 10:57:53;;;;;;;13.88;7.65;;;;;;;;;;6230328;28;20034;-84
2022/03/26 11:00:56;;;;;;;20.70;9.63;;;;;;;;;;6239348;28;20046;-86
2022/03/26 11:04:01;;;;;;;21.52;11.07;;;;;;;;;;6227470;28;20046;-86
2022/03/26 11:07:04;;;;;;;20.05;10.93;;;;;;;;;;6217396;28;20100;-86
2022/03/26 11:10:08;;;;;;;22.25;11.23;;;;;;;;;;6219138;28;20049;-84
2022/03/26 11:13:12;;;;;;;15.80;9.60;;;;;;;;;;6219067;28;20053;-81
2022/03/26 11:16:21;;;;;;;18.77;10.57;;;;;;;;;;6219035;28;20054;-86
2022/03/26 11:19:34;;;;;;;18.85;8.43;;;;;;;;;;6219888;28;20050;-85
2022/03/26 11:22:53;;;;;;;23.52;9.82;;;;;;;;;;6218996;28;20098;-83
2022/03/26 11:26:09;;;;;;;18.13;9.95;;;;;;;;;;6219774;28;20049;-82
2022/03/26 11:29:23;;;;;;;18.95;11.00;;;;;;;;;;6217909;28;20499;-83
2022/03/26 11:32:28;;;;;;;29.83;11.95;;;;;;;;;;6219810;28;20275;-83
2022/03/26 11:35:33;;;;;;;24.98;12.20;;;;;;;;;;6219076;28;20135;-82
2022/03/26 11:38:36;;;;;;;;;;;;;;;;;;6220190;28;20054;-83
2022/03/26 11:41:39;;;;;;;21.45;12.95;;;;;;;;;;6218916;28;19922;-83
2022/03/26 11:50:40;;;;;;;36.83;14.15;;;;;;;;;;6218863;28;20120;-82
2022/03/26 11:51:32;;;;;;;24.30;14.35;;;;;;;;;;6218742;28;20050;-81
2022/03/26 11:54:34;;;;;;;26.27;13.13;;;;;;;;;;6218539;28;20050;-86
2022/03/26 11:57:40;;;;;;;22.75;12.32;;;;;;;;;;6218430;28;20069;-81
2022/03/26 12:00:55;;;;;;;21.95;12.02;;;;;;;;;;6219685;28;20045;-83
2022/03/26 12:04:08;;;;;;;19.48;11.63;;;;;;;;;;6216861;28;20046;-84
2022/03/26 12:07:16;;;;;;;21.35;11.13;;;;;;;;;;6217076;28;20045;-83
2022/03/26 12:10:19;;;;;;;18.73;11.75;;;;;;;;;;6218951;28;20050;-84
2022/03/26 12:13:23;;;;;;;24.47;12.70;;;;;;;;;;6218258;28;20412;-82
2022/03/26 12:16:41;;;;;;;22.73;13.45;;;;;;;;;;6218367;28;20488;-84
2022/03/26 12:19:50;;;;;;;24.23;12.90;;;;;;;;;;6200466;28;20052;-83
2022/03/26 12:23:03;;;;;;;24.20;13.48;;;;;;;;;;6219035;28;20424;-82
2022/03/26 12:26:06;;;;;;;19.85;12.95;;;;;;;;;;6217712;28;20074;-84
2022/03/26 12:29:10;;;;;;;21.70;12.77;;;;;;;;;;6217611;28;20046;-86
2022/03/26 12:32:13;;;;;;;21.23;12.55;;;;;;;;;;6217048;28;20408;-85
2022/03/26 12:35:16;;;;;;;18.33;11.40;;;;;;;;;;6216608;28;20045;-84
2022/03/26 12:38:21;;;;;;;22.85;11.68;;;;;;;;;;6215473;28;20416;-83
2022/03/26 12:41:24;;;;;;;21.70;12.63;;;;;;;;;;6218230;28;20145;-84
2022/03/26 12:44:27;;;;;;;23.15;11.73;;;;;;;;;;6218261;28;20053;-86
2022/03/26 12:47:30;;;;;;;19.02;12.00;;;;;;;;;;6217638;28;20041;-84
2022/03/26 12:50:37;;;;;;;20.60;11.55;;;;;;;;;;6217462;28;20050;-84
2022/03/26 12:53:41;;;;;;;18.38;11.43;;;;;;;;;;6214888;28;20057;-87
2022/03/26 12:56:44;;;;;;;20.77;12.40;;;;;;;;;;6216587;28;20413;-85
2022/03/26 12:59:51;;;;;;;23.08;12.77;;;;;;;;;;6217028;28;20057;-84
2022/03/26 13:03:03;;;;;;;22.00;12.40;;;;;;;;;;6215289;28;20157;-84
2022/03/26 13:06:07;;;;;;;20.05;11.98;;;;;;;;;;6217910;28;20053;-83
2022/03/26 13:09:16;;;;;;;18.77;11.00;;;;;;;;;;6216081;28;20050;-86
2022/03/26 13:12:19;;;;;;;;;;;;;;;;;;6218108;28;20046;-84
2022/03/26 13:15:22;;;;;;;21.23;11.07;;;;;;;;;;6217295;28;20367;-84
2022/03/26 13:18:25;;;;;;;18.65;12.10;;;;;;;;;;6217555;28;20087;-83
2022/03/26 13:21:29;;;;;;;15.82;10.38;;;;;;;;;;6216524;28;20061;-85
2022/03/26 13:24:32;;;;;;;;;;;;;;;;;;6217842;28;20038;-82
2022/03/26 13:27:36;;;;;;;17.75;10.70;;;;;;;;;;6217213;28;19921;-82
2022/03/26 13:30:39;;;;;;;17.55;10.02;;;;;;;;;;6216507;28;20049;-82
2022/03/26 13:33:43;;;;;;;20.00;10.60;;;;;;;;;;6216627;28;20050;-84
2022/03/26 13:36:47;;;;;;;20.75;11.52;;;;;;;;;;6200445;28;20073;-85
2022/03/26 13:39:51;;;;;;;20.38;12.43;;;;;;;;;;6217026;28;20481;-87
2022/03/26 13:42:55;;;;;;;24.70;12.37;;;;;;;;;;6217726;28;20050;-88
2022/03/26 13:45:58;;;;;;;21.38;12.65;;;;;;;;;;6217368;28;20060;-86
2022/03/26 13:49:02;;;;;;;22.48;12.50;;;;;;;;;;6218182;28;20488;-87
2022/03/26 13:52:08;;;;;;;21.67;12.20;;;;;;;;;;6217985;28;20046;-86
2022/03/26 13:55:23;;;;;;;23.58;12.88;;;;;;;;;;6222362;28;20054;-88
2022/03/26 13:58:27;;;;;;;24.60;14.27;;;;;;;;;;6221202;28;20042;-77
2022/03/26 14:01:35;;;;;;;20.90;12.15;;;;;;;;;;6220834;28;20042;-81
2022/03/26 14:04:38;;;;;;;26.88;13.48;;;;;;;;;;6221349;28;20131;-79
2022/03/26 14:07:41;;;;;;;23.08;13.43;;;;;;;;;;6221016;28;20052;-80
2022/03/26 14:10:45;;;;;;;19.90;13.32;;;;;;;;;;6236403;28;20084;-78
2022/03/26 14:13:50;;;;;;;25.45;13.93;;;;;;;;;;6220404;28;20050;-80
2022/03/26 14:16:52;;;;;;;22.23;12.77;;;;;;;;;;6236345;28;20496;-80
2022/03/26 14:19:56;;;;;;;21.15;12.75;;;;;;;;;;6220663;28;20412;-79
2022/03/26 14:22:59;;;;;;;60.75;15.00;;;;;;;;;;6219789;28;20053;-79
2022/03/26 14:26:02;;;;;;;24.77;13.23;;;;;;;;;;6224785;28;20108;-80
2022/03/26 14:29:06;;;;;;;22.95;13.13;;;;;;;;;;6226161;28;20052;-79
2022/03/26 14:32:09;;;;;;;21.58;13.18;;;;;;;;;;6218631;28;20042;-79
2022/03/26 14:35:12;;;;;;;24.70;14.38;;;;;;;;;;6218168;28;20511;-80
2022/03/26 14:38:16;;;;;;;25.75;13.45;;;;;;;;;;6219308;28;20057;-79
2022/03/26 14:41:19;;;;;;;23.92;13.00;;;;;;;;;;6218791;28;20062;-80
2022/03/26 14:44:28;;;;;;;23.92;13.35;;;;;;;;;;6234706;28;20057;-79
2022/03/26 14:47:31;;;;;;;27.27;13.63;;;;;;;;;;6235213;28;20076;-78
2022/03/26 14:50:34;;;;;;;22.17;13.98;;;;;;;;;;6219403;28;20045;-79
2022/03/26 14:53:37;;;;;;;23.15;13.38;;;;;;;;;;6234220;28;20116;-80
2022/03/26 14:56:41;;;;;;;22.02;12.48;;;;;;;;;;6218549;28;20049;-79
2022/03/26 14:59:46;;;;;;;22.75;13.95;;;;;;;;;;6218005;28;20055;-79
2022/03/26 15:02:49;;;;;;;22.90;13.13;;;;;;;;;;6216449;28;20046;-79
2022/03/26 15:05:52;;;;;;;22.48;13.23;;;;;;;;;;6219534;28;20374;-78
2022/03/26 15:08:55;;;;;;;23.17;14.20;;;;;;;;;;6218349;28;20524;-78
2022/03/26 15:11:58;;;;;;;27.45;14.40;;;;;;;;;;6218288;28;20050;-79
2022/03/26 15:15:02;;;;;;;25.52;13.82;;;;;;;;;;6232142;28;20421;-78
2022/03/26 15:18:06;;;;;;;23.40;14.95;;;;;;;;;;6219643;28;20038;-80
2022/03/26 15:21:09;;;;;;;27.27;15.40;;;;;;;;;;6219224;28;20057;-78
2022/03/26 15:24:11;;;;;;;26.70;14.75;;;;;;;;;;6219347;28;20068;-78
2022/03/26 15:27:14;;;;;;;23.58;14.10;;;;;;;;;;6218230;28;20096;-80
2022/03/26 15:30:19;;;;;;;24.95;13.75;;;;;;;;;;6219607;28;20046;-78
2022/03/26 15:33:22;;;;;;;25.10;14.30;;;;;;;;;;6218555;28;20049;-77
2022/03/26 15:36:24;;;;;;;26.48;14.18;;;;;;;;;;6218193;28;20381;-78
2022/03/26 15:39:27;;;;;;;23.42;14.15;;;;;;;;;;6219357;28;20100;-78
2022/03/26 15:42:30;;;;;;;26.95;14.63;;;;;;;;;;6218651;28;20062;-78
2022/03/26 15:45:35;;;;;;;33.22;14.90;;;;;;;;;;6218874;28;20366;-78
2022/03/26 15:48:52;;;;;;;29.45;15.07;;;;;;;;;;6217934;28;20041;-77
2022/03/26 15:51:55;;;;;;;30.30;15.35;;;;;;;;;;6218757;28;20046;-79
2022/03/26 15:54:58;;;;;;;27.88;15.63;;;;;;;;;;6233734;28;20161;-78
2022/03/26 15:58:02;;;;;;;29.65;15.25;;;;;;;;;;6233121;28;20408;-79
2022/03/26 16:01:06;;;;;;;30.45;15.60;;;;;;;;;;6233774;28;20050;-79
2022/03/26 16:04:09;;;;;;;29.50;16.73;;;;;;;;;;6218352;28;20084;-78
2022/03/26 16:07:12;;;;;;;28.55;15.63;;;;;;;;;;6218024;28;20050;-79
2022/03/26 16:10:15;;;;;;;34.95;16.02;;;;;;;;;;6218089;28;20046;-78
2022/03/26 16:13:18;;;;;;;28.30;15.15;;;;;;;;;;6233254;28;20634;-79
2022/03/26 16:16:22;;;;;;;28.98;15.75;;;;;;;;;;6217904;28;20108;-79
2022/03/26 16:19:26;;;;;;;30.30;16.43;;;;;;;;;;6217363;28;20052;-78
2022/03/26 16:22:29;;;;;;;34.08;16.65;;;;;;;;;;6232821;28;20294;-81
2022/03/26 16:25:33;;;;;;;28.23;14.55;;;;;;;;;;6217928;28;20046;-81
2022/03/26 16:28:36;;;;;;;27.83;15.20;;;;;;;;;;6217531;28;20056;-80
2022/03/26 16:31:40;;;;;;;28.83;13.93;;;;;;;;;;6216806;28;20069;-78
2022/03/26 16:34:43;;;;;;;24.20;12.98;;;;;;;;;;6217557;28;20057;-78
2022/03/26 16:37:46;;;;;;;24.50;12.43;;;;;;;;;;6218221;28;20049;-80
2022/03/26 16:40:49;;;;;;;26.20;12.60;;;;;;;;;;6217593;28;20524;-79
2022/03/26 16:43:52;;;;;;;23.50;11.90;;;;;;;;;;6217864;28;20069;-78
2022/03/26 16:46:56;;;;;;;25.00;11.48;;;;;;;;;;6217027;28;20408;-78
2022/03/26 16:49:59;;;;;;;18.10;10.27;;;;;;;;;;6216959;28;20069;-79
2022/03/26 16:53:06;;;;;;;23.88;11.23;;;;;;;;;;6218256;28;20041;-79
2022/03/26 16:56:10;;;;;;;22.73;11.70;;;;;;;;;;6216871;28;20053;-78
2022/03/26 16:59:13;;;;;;;26.88;11.45;;;;;;;;;;6232326;28;20053;-78
2022/03/26 17:02:17;;;;;;;18.65;10.77;;;;;;;;;;6217361;28;20049;-78
2022/03/26 17:05:20;;;;;;;25.92;11.43;;;;;;;;;;6217635;28;20046;-80
2022/03/26 17:08:23;;;;;;;20.52;11.07;;;;;;;;;;6217974;28;20046;-78
2022/03/26 17:11:26;;;;;;;21.90;11.05;;;;;;;;;;6216677;28;20050;-78
2022/03/26 17:14:31;;;;;;;22.33;10.85;;;;;;;;;;6217728;28;20203;-78
2022/03/26 17:17:36;;;;;;;23.45;11.90;;;;;;;;;;6217813;28;20054;-78
2022/03/26 17:20:39;;;;;;;23.75;10.40;;;;;;;;;;6217294;28;20120;-79
2022/03/26 17:23:42;;;;;;;25.25;10.90;;;;;;;;;;6217084;28;20050;-79
2022/03/26 17:26:48;;;;;;;23.50;10.98;;;;;;;;;;6219162;28;20116;-79
2022/03/26 17:29:53;;;;;;;20.00;11.23;;;;;;;;;;6222589;28;20046;-79
2022/03/26 17:32:57;;;;;;;21.08;10.68;;;;;;;;;;6221306;28;20073;-78
2022/03/26 17:36:00;;;;;;;21.13;11.50;;;;;;;;;;6222522;28;20046;-78
2022/03/26 17:39:05;;;;;;;18.67;10.23;;;;;;;;;;6222242;28;20045;-78
2022/03/26 17:42:08;;;;;;;22.92;11.25;;;;;;;;;;6221357;28;20439;-80
2022/03/26 17:45:12;;;;;;;23.40;10.90;;;;;;;;;;6222284;28;20046;-79
2022/03/26 17:48:16;;;;;;;22.67;10.45;;;;;;;;;;6221475;28;20512;-78
2022/03/26 17:51:19;;;;;;;33.67;12.30;;;;;;;;;;6221825;28;20050;-78
2022/03/26 17:54:22;;;;;;;23.08;11.15;;;;;;;;;;6223136;28;20057;-78
2022/03/26 17:57:25;;;;;;;23.02;10.45;;;;;;;;;;6228307;28;20060;-79
2022/03/26 18:00:31;;;;;;;27.10;11.23;;;;;;;;;;6244664;28;20049;-80
2022/03/26 18:03:36;;;;;;;29.52;14.07;;;;;;;;;;6236648;28;20057;-78
2022/03/26 18:06:41;;;;;;;170.65;96.35;;;;;;;;;;6222046;28;20053;-82